Flight Track Log - Related Links

Times and Time Zones

All times are in EDT time to prevent confusion due to time zone crossing. See the TYR772 flight status page for this flight to view local times or setup timezone preferences in your user account.

Time Position Orientation Groundspeed Altitude Reporting Facility
EDT Latitude Longitude Course Direction KTS MPH feet Rate Location/Type
Sun 02:19:00 AM 45.1529 19.9551 323° Northwest  Level Estimated
Sun 02:20:00 AM 45.2197 19.8838 323° Northwest  Level Estimated
Sun 02:21:00 AM 45.2864 19.8123 323° Northwest  Level Estimated
Sun 02:22:00 AM 45.3531 19.7406 323° Northwest  Level Estimated
Sun 02:23:00 AM 45.4197 19.6688 323° Northwest  Level Estimated
Sun 02:24:00 AM 45.4863 19.5968 323° Northwest  Level Estimated
Sun 02:25:00 AM 45.5528 19.5247 323° Northwest  Level Estimated
Sun 02:26:00 AM 45.6193 19.4523 323° Northwest  Level Estimated
Sun 02:27:00 AM 45.6857 19.3798 323° Northwest  Level Estimated
Sun 02:28:00 AM 45.7521 19.3072 323° Northwest  Level Estimated
Sun 02:29:00 AM 45.8185 19.2343 323° Northwest  Level Estimated
Sun 02:30:00 AM 45.8848 19.1613 323° Northwest  Level Estimated
Sun 02:31:00 AM 45.9511 19.0881 322° Northwest  Level Estimated
Sun 02:32:00 AM 46.0173 19.0147 322° Northwest  Level Estimated
Sun 02:33:00 AM 46.0834 18.9412 322° Northwest  Level Estimated
Sun 02:34:00 AM 46.1496 18.8675 322° Northwest  Level Estimated
Sun 02:35:00 AM 46.2156 18.7936 322° Northwest  Level Estimated
Sun 02:36:00 AM 46.2817 18.7195 322° Northwest  Level Estimated
Sun 02:37:00 AM 46.3476 18.6452 322° Northwest  Level Estimated
Sun 02:38:00 AM 46.4136 18.5708 322° Northwest  Level Estimated
Sun 02:39:00 AM 46.4794 18.4962 322° Northwest  Level Estimated
Sun 02:40:00 AM 46.5453 18.4214 322° Northwest  Level Estimated
Sun 02:41:00 AM 46.6110 18.3464 322° Northwest  Level Estimated
Sun 02:42:00 AM 46.6768 18.2712 322° Northwest  Level Estimated
Sun 02:43:00 AM 46.7425 18.1959 322° Northwest  Level Estimated
Sun 02:44:00 AM 46.8081 18.1204 322° Northwest  Level Estimated
Sun 02:45:00 AM 46.8737 18.0446 322° Northwest  Level Estimated
Sun 02:46:00 AM 46.9392 17.9688 322° Northwest  Level Estimated
Sun 02:47:00 AM 47.0047 17.8927 322° Northwest  Level Estimated
Sun 02:48:00 AM 47.0701 17.8164 322° Northwest  Level Estimated
Sun 02:49:00 AM 47.1355 17.7400 322° Northwest  Level Estimated
Sun 02:50:00 AM 47.2008 17.6633 321° Northwest  Level Estimated
Sun 02:51:00 AM 47.2661 17.5865 321° Northwest  Level Estimated
Sun 02:52:00 AM 47.3313 17.5095 321° Northwest  Level Estimated
Sun 02:53:00 AM 47.3965 17.4322 321° Northwest  Level Estimated
Sun 02:54:00 AM 47.4616 17.3549 321° Northwest  Level Estimated
Sun 02:55:00 AM 47.5267 17.2773 321° Northwest  Level Estimated
Sun 02:56:00 AM 47.5917 17.1995 321° Northwest  Level Estimated
Sun 02:57:00 AM 47.6567 17.1215 321° Northwest  Level Estimated
Sun 02:58:00 AM 47.7216 17.0433 321° Northwest  Level Estimated
Sun 02:59:00 AM 47.7864 16.9649 321° Northwest  Level Estimated
Sun 03:00:00 AM 47.8513 16.8864 321° Northwest  Level Estimated
Sun 03:01:00 AM 47.9160 16.8076 321° Northwest  Level Estimated
Sun 03:02:00 AM 47.9807 16.7286 321° Northwest  Level Estimated
Sun 03:03:00 AM 48.0454 16.6495 321° Northwest  Level Estimated
Sun 03:04:00 AM 48.1100 16.5701 321° Northwest  Level Estimated
Sun 03:05:00 AM 48.1103 16.5697 321° Northwest  Level Estimated
Sun 03:06:00 AM 48.1103 16.5697 146° Southeast  Level Estimated
Sun 03:07:00 AM 48.1103 16.5697 146° Southeast  Level Estimated
Sun 03:08:00 AM 48.1103 16.5697 146° Southeast  Level Estimated
Sun 03:09:00 AM 48.1103 16.5697 146° Southeast  Level Estimated
Sun 03:10:00 AM 48.1103 16.5697 146° Southeast  Level Estimated
Sun 03:11:00 AM 48.1103 16.5697 146° Southeast  Level Estimated
Sun 03:12:00 AM 48.1103 16.5697 146° Southeast  Level Estimated
Sun 03:13:00 AM 48.1103 16.5697 146° Southeast  Level Estimated
Sun 03:14:00 AM 48.1103 16.5697 146° Southeast  Level Estimated
Sun 03:15:00 AM 48.1103 16.5697 146° Southeast  Level Estimated
Sun 03:16:00 AM 48.1103 16.5697 146° Southeast  Level Estimated
Sun 03:17:00 AM 48.1103 16.5697 146° Southeast  Level Estimated

Login

Don't have an account? Register now (free) for customized features, flight alerts, and more!